Time;durP1;ratioP1;P1;durP2;ratioP2;P2;SDS_P1;SDS_P2;PMS_P1;PMS_P2;Temp;Humidity;BMP_temperature;BMP_pressure;BME280_temperature;BME280_humidity;BME280_pressure;Samples;Min_cycle;Max_cycle;Signal;HPM_P1;HPM_P2
2021/05/17 00:01:04;;;;;;;;;;;19.80;46.00;;;;;;461044;258;2121;-46
2021/05/17 00:03:05;;;;;;;;;;;19.80;45.90;;;;;;461107;258;1056;-46
2021/05/17 00:05:06;;;;;;;;;;;19.90;45.80;;;;;;461363;258;1126;-46
2021/05/17 00:07:08;;;;;;;;;;;19.90;45.70;;;;;;461376;258;1354;-46
2021/05/17 00:09:09;;;;;;;;;;;19.90;45.70;;;;;;461193;258;1295;-46
2021/05/17 00:11:10;;;;;;;;;;;19.90;45.60;;;;;;461342;258;1202;-46
2021/05/17 00:13:11;;;;;;;;;;;20.00;45.60;;;;;;461226;258;1074;-46
2021/05/17 00:15:13;;;;;;;;;;;20.00;45.50;;;;;;461381;258;1101;-46
2021/05/17 00:17:14;;;;;;;;;;;20.00;45.50;;;;;;461552;258;1569;-46
2021/05/17 00:19:15;;;;;;;;;;;20.00;45.50;;;;;;461139;258;2217;-46
2021/05/17 00:21:17;;;;;;;;;;;20.10;45.50;;;;;;461108;258;1129;-46
2021/05/17 00:23:18;;;;;;;;;;;20.10;45.30;;;;;;461318;258;1267;-46
2021/05/17 00:25:23;;;;;;;;;;;20.20;45.30;;;;;;461283;258;1208;-46
2021/05/17 00:27:22;;;;;;;;;;;20.20;45.20;;;;;;461026;258;1561;-46
2021/05/17 00:29:23;;;;;;;;;;;20.20;45.20;;;;;;461181;258;1100;-46
2021/05/17 00:31:24;;;;;;;;;;;20.20;45.20;;;;;;461095;258;1154;-46
2021/05/17 00:33:26;;;;;;;;;;;20.20;45.10;;;;;;461390;258;1063;-46
2021/05/17 00:35:27;;;;;;;;;;;20.30;45.10;;;;;;461533;258;1153;-46
2021/05/17 00:37:28;;;;;;;;;;;20.30;45.10;;;;;;461178;258;1223;-46
2021/05/17 00:39:30;;;;;;;;;;;20.30;45.10;;;;;;461219;258;2216;-46
2021/05/17 00:41:31;;;;;;;;;;;20.30;44.90;;;;;;461457;258;1169;-46
2021/05/17 00:43:36;;;;;;;;;;;20.40;44.90;;;;;;461453;258;1054;-46
2021/05/17 00:45:34;;;;;;;;;;;20.30;44.80;;;;;;461016;258;2457;-46
2021/05/17 00:47:35;;;;;;;;;;;20.40;44.80;;;;;;461254;258;1431;-46
2021/05/17 00:49:36;;;;;;;;;;;20.40;44.80;;;;;;461107;258;1093;-46
2021/05/17 00:51:38;;;;;;;;;;;20.40;44.70;;;;;;461115;258;1116;-46
2021/05/17 00:53:40;;;;;;;;;;;20.50;44.80;;;;;;461206;258;1022;-46
2021/05/17 00:55:40;;;;;;;;;;;20.50;44.70;;;;;;461240;258;2086;-46
2021/05/17 00:57:41;;;;;;;;;;;20.50;44.70;;;;;;461230;258;1675;-46
2021/05/17 00:59:43;;;;;;;;;;;20.50;44.70;;;;;;461235;258;2196;-46
2021/05/17 01:01:44;;;;;;;;;;;20.50;44.60;;;;;;461373;258;1232;-46
2021/05/17 01:03:45;;;;;;;;;;;20.50;44.60;;;;;;461366;258;1253;-46
2021/05/17 01:05:47;;;;;;;;;;;20.60;44.60;;;;;;461229;258;1140;-46
2021/05/17 01:07:50;;;;;;;;;;;20.50;44.50;;;;;;461207;258;1014;-46
2021/05/17 01:09:50;;;;;;;;;;;20.60;44.60;;;;;;461179;258;2352;-46
2021/05/17 01:11:51;;;;;;;;;;;20.60;44.50;;;;;;461219;258;1415;-46
2021/05/17 01:13:53;;;;;;;;;;;20.60;44.50;;;;;;461298;258;1163;-46
2021/05/17 01:15:54;;;;;;;;;;;20.60;44.50;;;;;;461411;258;1213;-46
2021/05/17 01:17:55;;;;;;;;;;;20.60;44.50;;;;;;461412;258;1276;-46
2021/05/17 01:19:59;;;;;;;;;;;20.60;44.40;;;;;;461289;258;2203;-46
2021/05/17 01:22:07;;;;;;;;;;;20.60;44.40;;;;;;461010;258;1495;-46
2021/05/17 01:24:00;;;;;;;;;;;20.70;44.50;;;;;;460712;258;2152;-46
2021/05/17 01:26:01;;;;;;;;;;;20.70;44.40;;;;;;461083;258;1241;-46
2021/05/17 01:28:02;;;;;;;;;;;20.70;44.40;;;;;;461119;258;1199;-46
2021/05/17 01:30:04;;;;;;;;;;;20.70;44.50;;;;;;461405;258;1080;-46
2021/05/17 01:32:05;;;;;;;;;;;20.80;44.30;;;;;;461270;258;1418;-46
2021/05/17 01:34:06;;;;;;;;;;;20.50;44.60;;;;;;461359;258;1126;-46
2021/05/17 01:36:07;;;;;;;;;;;20.00;45.80;;;;;;461384;258;1212;-46
2021/05/17 01:38:09;;;;;;;;;;;19.60;46.90;;;;;;461421;258;1093;-46
2021/05/17 01:40:10;;;;;;;;;;;19.20;47.80;;;;;;461471;258;2149;-46
2021/05/17 01:42:11;;;;;;;;;;;19.10;48.40;;;;;;461035;258;1325;-46
2021/05/17 01:44:13;;;;;;;;;;;18.90;48.70;;;;;;461132;258;1250;-46
2021/05/17 01:46:14;;;;;;;;;;;18.80;49.10;;;;;;461288;258;1169;-46
2021/05/17 01:48:15;;;;;;;;;;;18.60;49.50;;;;;;461117;258;1120;-46
2021/05/17 01:50:17;;;;;;;;;;;18.50;49.70;;;;;;461399;258;1133;-46
2021/05/17 01:52:18;;;;;;;;;;;18.40;50.00;;;;;;461178;258;1395;-46
2021/05/17 01:54:19;;;;;;;;;;;18.40;50.20;;;;;;461184;258;1230;-46
2021/05/17 01:56:20;;;;;;;;;;;18.40;50.20;;;;;;461324;258;1501;-46
2021/05/17 01:58:22;;;;;;;;;;;18.40;50.20;;;;;;461270;258;1010;-46
2021/05/17 02:00:23;;;;;;;;;;;18.30;50.30;;;;;;461409;258;2153;-46
2021/05/17 02:02:24;;;;;;;;;;;18.30;50.50;;;;;;461215;258;1162;-46
2021/05/17 02:04:26;;;;;;;;;;;18.20;50.50;;;;;;461460;258;1152;-46
2021/05/17 02:06:27;;;;;;;;;;;18.20;50.50;;;;;;461228;258;1193;-46
2021/05/17 02:08:28;;;;;;;;;;;18.20;50.60;;;;;;461527;258;1152;-46
2021/05/17 02:10:29;;;;;;;;;;;18.20;50.70;;;;;;461382;258;1103;-46
2021/05/17 02:12:31;;;;;;;;;;;18.20;50.70;;;;;;461122;258;1217;-46
2021/05/17 02:14:32;;;;;;;;;;;18.10;50.70;;;;;;461454;258;1117;-46
2021/05/17 02:16:33;;;;;;;;;;;18.10;50.80;;;;;;461187;258;1328;-46
2021/05/17 02:18:35;;;;;;;;;;;18.00;50.90;;;;;;461419;258;1205;-46
2021/05/17 02:20:37;;;;;;;;;;;18.00;50.90;;;;;;461438;258;2207;-46
2021/05/17 02:22:37;;;;;;;;;;;18.00;51.00;;;;;;461168;258;1963;-46
2021/05/17 02:24:39;;;;;;;;;;;18.00;51.10;;;;;;461560;258;1091;-46
2021/05/17 02:26:40;;;;;;;;;;;17.90;51.10;;;;;;461098;258;1227;-46
2021/05/17 02:28:41;;;;;;;;;;;17.90;51.20;;;;;;461530;258;1096;-46
2021/05/17 02:30:43;;;;;;;;;;;17.90;51.30;;;;;;461222;258;1176;-46
2021/05/17 02:32:44;;;;;;;;;;;17.90;51.20;;;;;;461159;258;1125;-46
2021/05/17 02:34:45;;;;;;;;;;;17.90;51.30;;;;;;461375;258;1140;-46
2021/05/17 02:36:46;;;;;;;;;;;17.80;51.40;;;;;;461112;258;1485;-46
2021/05/17 02:38:48;;;;;;;;;;;17.80;51.40;;;;;;461261;258;1266;-46
2021/05/17 02:40:49;;;;;;;;;;;17.80;51.30;;;;;;461189;258;2160;-46
2021/05/17 02:42:50;;;;;;;;;;;17.80;51.30;;;;;;461188;258;1242;-46
2021/05/17 02:44:52;;;;;;;;;;;17.80;51.40;;;;;;461083;258;1103;-46
2021/05/17 02:46:53;;;;;;;;;;;17.80;51.40;;;;;;461156;258;1270;-46
2021/05/17 02:48:54;;;;;;;;;;;17.80;51.40;;;;;;461365;258;1071;-46
2021/05/17 02:50:56;;;;;;;;;;;17.80;51.30;;;;;;461228;258;1070;-46
2021/05/17 02:52:57;;;;;;;;;;;17.70;51.50;;;;;;461192;258;1085;-46
2021/05/17 02:54:58;;;;;;;;;;;17.70;51.60;;;;;;461644;258;1076;-46
2021/05/17 02:57:00;;;;;;;;;;;17.70;51.60;;;;;;461366;258;1334;-46
2021/05/17 02:59:01;;;;;;;;;;;17.70;51.50;;;;;;461434;258;1067;-46
2021/05/17 03:01:02;;;;;;;;;;;17.70;51.60;;;;;;461389;258;2144;-46
2021/05/17 03:03:04;;;;;;;;;;;17.70;51.70;;;;;;461094;258;1009;-46
2021/05/17 03:05:05;;;;;;;;;;;17.60;51.70;;;;;;461587;258;1074;-46
2021/05/17 03:07:06;;;;;;;;;;;17.70;51.70;;;;;;461241;258;1212;-46
2021/05/17 03:09:08;;;;;;;;;;;17.70;51.50;;;;;;461234;258;1070;-46
2021/05/17 03:11:09;;;;;;;;;;;17.70;51.60;;;;;;461042;258;1130;-46
2021/05/17 03:13:10;;;;;;;;;;;17.60;51.70;;;;;;461289;258;1167;-45
2021/05/17 03:15:12;;;;;;;;;;;17.60;51.70;;;;;;461375;258;1079;-46
2021/05/17 03:17:13;;;;;;;;;;;17.60;51.70;;;;;;461172;258;1215;-46
2021/05/17 03:19:14;;;;;;;;;;;17.60;51.60;;;;;;461458;258;1226;-46
2021/05/17 03:21:16;;;;;;;;;;;17.60;51.70;;;;;;461352;258;2144;-46
2021/05/17 03:23:17;;;;;;;;;;;17.60;51.60;;;;;;461551;258;1197;-46
2021/05/17 03:25:18;;;;;;;;;;;17.70;51.50;;;;;;461392;258;1222;-46
2021/05/17 03:27:20;;;;;;;;;;;17.70;51.70;;;;;;461164;258;1238;-46
2021/05/17 03:29:21;;;;;;;;;;;17.60;51.70;;;;;;461370;258;1130;-46
2021/05/17 03:31:22;;;;;;;;;;;17.60;51.70;;;;;;461230;258;1429;-46
2021/05/17 03:33:24;;;;;;;;;;;17.60;51.70;;;;;;461108;258;1115;-46
2021/05/17 03:35:25;;;;;;;;;;;17.60;51.70;;;;;;461473;258;1492;-46
2021/05/17 03:37:26;;;;;;;;;;;17.50;51.70;;;;;;461100;258;1194;-46
2021/05/17 03:39:28;;;;;;;;;;;17.50;51.80;;;;;;461550;258;1114;-46
2021/05/17 03:41:29;;;;;;;;;;;17.50;51.60;;;;;;461129;258;2153;-46
2021/05/17 03:43:31;;;;;;;;;;;17.50;51.80;;;;;;461267;258;1217;-46
2021/05/17 03:45:32;;;;;;;;;;;17.50;51.80;;;;;;461308;258;1256;-46
2021/05/17 03:47:33;;;;;;;;;;;17.50;51.90;;;;;;461212;258;1184;-46
2021/05/17 03:49:35;;;;;;;;;;;17.50;51.90;;;;;;461422;258;1064;-46
2021/05/17 03:51:36;;;;;;;;;;;17.40;51.90;;;;;;461288;258;1236;-46
2021/05/17 03:53:37;;;;;;;;;;;17.50;51.80;;;;;;461203;258;1059;-46
2021/05/17 03:55:39;;;;;;;;;;;17.90;51.10;;;;;;461154;258;1213;-46
2021/05/17 03:57:40;;;;;;;;;;;18.30;49.90;;;;;;461057;258;1677;-46
2021/05/17 03:59:44;;;;;;;;;;;18.60;49.00;;;;;;461346;258;1129;-46
2021/05/17 04:01:43;;;;;;;;;;;18.80;48.30;;;;;;460875;258;2224;-46
2021/05/17 04:03:44;;;;;;;;;;;19.00;47.90;;;;;;461257;258;1090;-46
2021/05/17 04:05:57;;;;;;;;;;;19.10;47.50;;;;;;461080;258;1189;-46
2021/05/17 04:08:07;;;;;;;;;;;19.20;47.20;;;;;;461117;258;1267;-46
2021/05/17 04:13:18;;;;;;;;;;;19.40;46.90;;;;;;461316;258;1116;-46
2021/05/17 04:14:36;;;;;;;;;;;19.40;46.70;;;;;;459973;258;1578;-46
2021/05/17 04:16:38;;;;;;;;;;;19.50;46.60;;;;;;461093;258;1262;-46
2021/05/17 04:18:39;;;;;;;;;;;19.60;46.50;;;;;;461310;258;1076;-46
2021/05/17 04:20:40;;;;;;;;;;;19.60;46.40;;;;;;461029;258;2165;-46
2021/05/17 04:22:41;;;;;;;;;;;19.60;46.30;;;;;;461044;258;1230;-46
2021/05/17 04:24:43;;;;;;;;;;;19.60;46.30;;;;;;461068;258;1252;-46
2021/05/17 04:26:44;;;;;;;;;;;19.70;46.20;;;;;;461194;258;1369;-46
2021/05/17 04:28:46;;;;;;;;;;;19.70;46.10;;;;;;461222;258;1248;-46
2021/05/17 04:30:47;;;;;;;;;;;19.80;46.10;;;;;;461198;258;1346;-46
2021/05/17 04:32:48;;;;;;;;;;;19.80;46.00;;;;;;461071;258;1116;-46
2021/05/17 04:34:50;;;;;;;;;;;19.80;45.90;;;;;;461050;258;1124;-46
2021/05/17 04:36:51;;;;;;;;;;;19.80;45.90;;;;;;461147;258;1181;-46
2021/05/17 04:38:52;;;;;;;;;;;19.90;45.90;;;;;;461303;258;1139;-46
2021/05/17 04:40:54;;;;;;;;;;;19.90;45.80;;;;;;461007;258;2216;-46
2021/05/17 04:42:55;;;;;;;;;;;19.90;45.70;;;;;;461110;258;1127;-46
2021/05/17 04:44:56;;;;;;;;;;;20.00;45.70;;;;;;461013;258;1097;-46
2021/05/17 04:46:58;;;;;;;;;;;20.00;45.60;;;;;;460952;258;1321;-46
2021/05/17 04:48:59;;;;;;;;;;;20.00;45.50;;;;;;460968;258;1136;-46
2021/05/17 04:51:00;;;;;;;;;;;20.00;45.50;;;;;;461024;258;1119;-46
2021/05/17 04:53:02;;;;;;;;;;;20.00;45.50;;;;;;460773;258;1184;-46
2021/05/17 04:55:03;;;;;;;;;;;20.00;45.50;;;;;;460843;258;1247;-46
2021/05/17 04:57:04;;;;;;;;;;;20.10;45.50;;;;;;460991;258;1090;-46
2021/05/17 04:59:06;;;;;;;;;;;20.10;45.50;;;;;;460946;258;1200;-46
2021/05/17 05:01:07;;;;;;;;;;;20.10;45.40;;;;;;460813;258;2157;-46
2021/05/17 05:03:08;;;;;;;;;;;20.20;45.40;;;;;;460873;258;1141;-46
2021/05/17 05:05:10;;;;;;;;;;;20.20;45.20;;;;;;461168;258;1084;-46
2021/05/17 05:07:11;;;;;;;;;;;20.20;45.20;;;;;;461026;258;1387;-46
2021/05/17 05:09:12;;;;;;;;;;;20.20;45.20;;;;;;460917;258;1085;-46
2021/05/17 05:11:13;;;;;;;;;;;20.20;45.20;;;;;;460791;258;1440;-46
2021/05/17 05:13:15;;;;;;;;;;;20.30;45.20;;;;;;460986;258;1122;-46
2021/05/17 05:15:16;;;;;;;;;;;20.30;45.20;;;;;;460962;258;1143;-46
2021/05/17 05:17:17;;;;;;;;;;;20.30;45.20;;;;;;460934;258;1342;-46
2021/05/17 05:19:19;;;;;;;;;;;20.30;45.20;;;;;;461042;258;1164;-46
2021/05/17 05:21:20;;;;;;;;;;;20.30;45.00;;;;;;460817;258;2204;-46
2021/05/17 05:23:21;;;;;;;;;;;20.30;45.00;;;;;;460846;258;1314;-46
2021/05/17 05:25:24;;;;;;;;;;;20.40;45.10;;;;;;460835;258;1394;-46
2021/05/17 05:27:27;;;;;;;;;;;20.40;45.10;;;;;;460777;258;2196;-46
2021/05/17 05:29:34;;;;;;;;;;;20.40;45.00;;;;;;460905;258;2240;-46
2021/05/17 05:31:35;;;;;;;;;;;20.40;44.90;;;;;;460583;258;2126;-46
2021/05/17 05:33:33;;;;;;;;;;;20.40;44.90;;;;;;460613;258;1568;-46
2021/05/17 05:35:34;;;;;;;;;;;20.40;44.90;;;;;;460757;258;1194;-46
2021/05/17 05:37:35;;;;;;;;;;;20.40;44.90;;;;;;460741;258;1517;-46
2021/05/17 05:39:36;;;;;;;;;;;20.50;44.90;;;;;;460869;258;1119;-46
2021/05/17 05:41:38;;;;;;;;;;;20.40;44.80;;;;;;460772;258;2226;-46
2021/05/17 05:43:39;;;;;;;;;;;20.50;44.80;;;;;;460829;258;1120;-46
2021/05/17 05:45:45;;;;;;;;;;;20.50;44.80;;;;;;460684;258;1198;-46
2021/05/17 05:47:44;;;;;;;;;;;20.50;44.70;;;;;;460612;258;2402;-46
2021/05/17 05:49:46;;;;;;;;;;;20.50;44.80;;;;;;460656;258;1250;-46
2021/05/17 05:51:47;;;;;;;;;;;20.50;44.70;;;;;;460603;258;1318;-46
2021/05/17 05:53:48;;;;;;;;;;;20.50;44.70;;;;;;460759;258;1164;-46
2021/05/17 05:55:50;;;;;;;;;;;20.60;44.70;;;;;;460500;258;1649;-46
2021/05/17 05:57:51;;;;;;;;;;;20.60;44.70;;;;;;460739;254;1375;-46
2021/05/17 05:59:52;;;;;;;;;;;20.60;44.70;;;;;;460811;258;1185;-46
2021/05/17 06:01:53;;;;;;;;;;;20.60;44.60;;;;;;460446;258;2192;-46
2021/05/17 06:03:55;;;;;;;;;;;20.60;44.60;;;;;;460727;258;1146;-46
2021/05/17 06:05:56;;;;;;;;;;;20.60;44.50;;;;;;460739;258;1356;-46
2021/05/17 06:07:58;;;;;;;;;;;20.60;44.50;;;;;;460932;258;1501;-46
2021/05/17 06:09:59;;;;;;;;;;;20.60;44.50;;;;;;460633;258;2454;-46
2021/05/17 06:12:00;;;;;;;;;;;20.70;44.60;;;;;;460657;258;1309;-46
2021/05/17 06:14:02;;;;;;;;;;;20.80;44.40;;;;;;460864;258;1160;-46
2021/05/17 06:16:03;;;;;;;;;;;20.60;44.70;;;;;;460437;258;1976;-46
2021/05/17 06:18:04;;;;;;;;;;;20.10;45.60;;;;;;460602;258;1251;-46
2021/05/17 06:20:05;;;;;;;;;;;19.60;46.90;;;;;;460705;258;1103;-46
2021/05/17 06:22:07;;;;;;;;;;;19.30;47.70;;;;;;460660;258;2192;-46
2021/05/17 06:24:10;;;;;;;;;;;19.10;48.20;;;;;;460740;258;1556;-46
2021/05/17 06:26:09;;;;;;;;;;;18.90;48.50;;;;;;460601;258;2060;-46
2021/05/17 06:28:10;;;;;;;;;;;18.80;48.90;;;;;;461192;258;1147;-46
2021/05/17 06:30:12;;;;;;;;;;;18.70;49.30;;;;;;460866;258;1212;-46
2021/05/17 06:32:13;;;;;;;;;;;18.60;49.60;;;;;;460659;258;1098;-46
2021/05/17 06:34:14;;;;;;;;;;;18.50;49.60;;;;;;460527;258;1395;-46
2021/05/17 06:36:16;;;;;;;;;;;18.40;49.90;;;;;;461063;258;1419;-46
2021/05/17 06:38:17;;;;;;;;;;;18.40;50.00;;;;;;460545;258;1187;-46
2021/05/17 06:40:18;;;;;;;;;;;18.40;50.10;;;;;;460581;258;1263;-46
2021/05/17 06:42:19;;;;;;;;;;;18.30;50.30;;;;;;460427;258;2235;-46
2021/05/17 06:44:21;;;;;;;;;;;18.30;50.40;;;;;;460670;258;1352;-46
2021/05/17 06:46:22;;;;;;;;;;;18.20;50.40;;;;;;460668;258;1725;-46
2021/05/17 06:48:24;;;;;;;;;;;18.20;50.50;;;;;;460610;258;1556;-46
2021/05/17 06:50:25;;;;;;;;;;;18.20;50.60;;;;;;460548;258;1151;-46
2021/05/17 06:52:26;;;;;;;;;;;18.10;50.60;;;;;;460285;258;1291;-46
2021/05/17 06:54:29;;;;;;;;;;;18.10;50.70;;;;;;460375;258;1336;-46
2021/05/17 06:56:37;;;;;;;;;;;18.10;50.60;;;;;;460466;258;2321;-46
2021/05/17 06:58:34;;;;;;;;;;;18.10;50.80;;;;;;459972;258;2141;-46
2021/05/17 07:00:34;;;;;;;;;;;18.00;51.00;;;;;;460485;258;1135;-46
2021/05/17 07:02:36;;;;;;;;;;;18.00;51.10;;;;;;460463;258;2141;-46
2021/05/17 07:04:38;;;;;;;;;;;18.00;51.00;;;;;;460374;258;1234;-46
2021/05/17 07:06:41;;;;;;;;;;;17.90;51.10;;;;;;460585;258;1133;-46
2021/05/17 07:13:19;;;;;;;;;;;18.00;51.00;;;;;;460641;258;1260;-46
2021/05/17 07:15:20;;;;;;;;;;;17.90;51.00;;;;;;460470;258;1297;-46
2021/05/17 07:17:22;;;;;;;;;;;18.00;51.00;;;;;;460501;258;1379;-46
2021/05/17 07:19:23;;;;;;;;;;;17.90;51.10;;;;;;460678;258;1100;-46
2021/05/17 07:23:44;;;;;;;;;;;17.90;51.10;;;;;;460585;258;1159;-46
2021/05/17 07:25:46;;;;;;;;;;;17.80;51.10;;;;;;460455;258;1226;-46
2021/05/17 07:27:47;;;;;;;;;;;17.80;51.30;;;;;;460674;258;1291;-46
2021/05/17 07:29:50;;;;;;;;;;;17.80;51.40;;;;;;461178;258;1120;-46
2021/05/17 07:31:50;;;;;;;;;;;17.80;51.40;;;;;;460364;258;1322;-46
2021/05/17 07:33:51;;;;;;;;;;;17.80;51.30;;;;;;460504;258;1308;-46
2021/05/17 07:35:52;;;;;;;;;;;17.80;51.30;;;;;;460378;258;1458;-46
2021/05/17 07:37:54;;;;;;;;;;;17.80;51.30;;;;;;460602;258;1274;-45
2021/05/17 07:39:55;;;;;;;;;;;17.80;51.40;;;;;;460327;258;1185;-46
2021/05/17 07:41:56;;;;;;;;;;;17.80;51.40;;;;;;460192;258;2209;-45
2021/05/17 07:43:58;;;;;;;;;;;17.80;51.40;;;;;;460339;258;1129;-46
2021/05/17 07:45:59;;;;;;;;;;;17.80;51.40;;;;;;460297;258;1338;-45
2021/05/17 07:48:02;;;;;;;;;;;17.70;51.50;;;;;;460276;258;1116;-46
2021/05/17 07:50:02;;;;;;;;;;;17.70;51.50;;;;;;460107;258;1836;-46
2021/05/17 07:52:04;;;;;;;;;;;17.70;51.40;;;;;;460356;258;1178;-45
2021/05/17 07:54:06;;;;;;;;;;;17.70;51.40;;;;;;460369;258;1242;-46
2021/05/17 07:56:07;;;;;;;;;;;17.70;51.40;;;;;;460288;258;1362;-46
2021/05/17 07:58:08;;;;;;;;;;;17.70;51.50;;;;;;460433;258;1083;-46
2021/05/17 08:00:09;;;;;;;;;;;17.60;51.60;;;;;;460970;258;847;-46
2021/05/17 08:02:11;;;;;;;;;;;17.60;51.60;;;;;;460602;258;2207;-46
2021/05/17 08:04:14;;;;;;;;;;;17.70;51.50;;;;;;460395;258;1142;-46
2021/05/17 08:06:14;;;;;;;;;;;17.60;51.50;;;;;;460075;258;1803;-46
2021/05/17 08:08:15;;;;;;;;;;;17.60;51.50;;;;;;460362;258;1116;-46
2021/05/17 08:10:17;;;;;;;;;;;17.60;51.70;;;;;;460194;258;1221;-46
2021/05/17 08:12:18;;;;;;;;;;;17.60;51.70;;;;;;460117;258;1356;-46
2021/05/17 08:14:19;;;;;;;;;;;17.60;51.60;;;;;;460431;258;1122;-46
2021/05/17 08:16:20;;;;;;;;;;;17.60;51.50;;;;;;460427;258;1300;-46
2021/05/17 08:18:22;;;;;;;;;;;17.60;51.50;;;;;;460424;258;1102;-46
2021/05/17 08:20:24;;;;;;;;;;;17.60;51.40;;;;;;460306;258;1168;-46
2021/05/17 08:22:24;;;;;;;;;;;17.70;51.40;;;;;;460765;258;2207;-46
2021/05/17 08:24:26;;;;;;;;;;;17.70;51.30;;;;;;460442;258;1122;-46
2021/05/17 08:26:27;;;;;;;;;;;17.70;51.40;;;;;;460316;258;1830;-46
2021/05/17 08:28:28;;;;;;;;;;;17.70;51.40;;;;;;460474;258;1078;-46
2021/05/17 08:30:30;;;;;;;;;;;17.60;51.40;;;;;;460420;258;1139;-46
2021/05/17 08:32:31;;;;;;;;;;;17.70;51.30;;;;;;460499;258;1189;-46
2021/05/17 08:34:32;;;;;;;;;;;17.60;51.30;;;;;;460441;258;1113;-46
2021/05/17 08:36:33;;;;;;;;;;;17.60;51.50;;;;;;460333;258;1278;-46
2021/05/17 08:38:35;;;;;;;;;;;17.70;51.30;;;;;;460451;258;1117;-46
2021/05/17 08:40:36;;;;;;;;;;;17.60;51.30;;;;;;460534;258;1318;-46
2021/05/17 08:42:37;;;;;;;;;;;17.60;51.30;;;;;;460517;258;2172;-46
2021/05/17 08:44:39;;;;;;;;;;;17.60;51.40;;;;;;460317;258;1227;-46
2021/05/17 08:46:46;;;;;;;;;;;17.50;51.60;;;;;;460198;258;1231;-46
2021/05/17 08:48:47;;;;;;;;;;;17.60;51.60;;;;;;460096;258;1961;-46
2021/05/17 08:50:48;;;;;;;;;;;17.50;51.60;;;;;;460417;258;1161;-46
2021/05/17 08:52:49;;;;;;;;;;;17.50;51.60;;;;;;460474;258;1232;-46
2021/05/17 08:54:51;;;;;;;;;;;17.50;51.60;;;;;;460297;258;1324;-46
2021/05/17 08:56:52;;;;;;;;;;;17.50;51.60;;;;;;460542;258;1323;-46
2021/05/17 08:58:53;;;;;;;;;;;17.50;51.60;;;;;;460633;258;1120;-46
2021/05/17 09:00:54;;;;;;;;;;;17.40;51.70;;;;;;461097;258;1180;-46
2021/05/17 09:02:56;;;;;;;;;;;17.40;51.70;;;;;;460777;258;2211;-46
2021/05/17 09:04:57;;;;;;;;;;;17.50;51.60;;;;;;460600;258;1117;-46
2021/05/17 09:06:59;;;;;;;;;;;17.50;51.60;;;;;;460322;258;1637;-46
2021/05/17 09:09:00;;;;;;;;;;;17.40;51.80;;;;;;460486;258;1768;-46
2021/05/17 09:11:01;;;;;;;;;;;17.40;51.90;;;;;;460464;258;1243;-46
2021/05/17 09:13:02;;;;;;;;;;;17.40;52.00;;;;;;460786;258;1161;-46
2021/05/17 09:15:03;;;;;;;;;;;17.30;52.00;;;;;;460509;258;1113;-46
2021/05/17 09:17:06;;;;;;;;;;;17.40;51.80;;;;;;460550;258;1331;-46
2021/05/17 09:19:06;;;;;;;;;;;17.40;51.80;;;;;;460323;258;2296;-45
2021/05/17 09:21:07;;;;;;;;;;;17.40;51.80;;;;;;460404;258;1261;-46
2021/05/17 09:23:09;;;;;;;;;;;17.40;51.80;;;;;;460412;258;2211;-46
2021/05/17 09:25:10;;;;;;;;;;;17.40;51.70;;;;;;460532;258;1156;-46
2021/05/17 09:27:11;;;;;;;;;;;17.40;51.90;;;;;;460394;258;1292;-46
2021/05/17 09:29:12;;;;;;;;;;;17.40;52.00;;;;;;460532;258;1146;-46
2021/05/17 09:31:14;;;;;;;;;;;17.40;51.70;;;;;;460399;258;1256;-46
2021/05/17 09:33:15;;;;;;;;;;;17.70;51.10;;;;;;460468;258;1246;-46
2021/05/17 09:35:17;;;;;;;;;;;18.10;50.00;;;;;;460347;258;1195;-46
2021/05/17 09:37:17;;;;;;;;;;;18.40;49.20;;;;;;460374;258;2138;-46
2021/05/17 09:39:19;;;;;;;;;;;18.60;48.50;;;;;;460454;258;1221;-46
2021/05/17 09:41:20;;;;;;;;;;;18.80;48.10;;;;;;460484;258;1458;-46
2021/05/17 09:43:22;;;;;;;;;;;19.00;47.70;;;;;;460427;258;2153;-46
2021/05/17 09:45:23;;;;;;;;;;;19.00;47.40;;;;;;460321;258;1507;-46
2021/05/17 09:47:24;;;;;;;;;;;19.20;47.20;;;;;;460265;258;1366;-46
2021/05/17 09:49:25;;;;;;;;;;;19.20;46.90;;;;;;460433;258;1325;-46
2021/05/17 09:51:27;;;;;;;;;;;19.30;46.90;;;;;;460225;258;1535;-46
2021/05/17 09:53:28;;;;;;;;;;;19.30;46.60;;;;;;460145;258;1144;-46
2021/05/17 09:55:29;;;;;;;;;;;19.40;46.60;;;;;;460119;258;1263;-46
2021/05/17 09:57:31;;;;;;;;;;;19.40;46.40;;;;;;460227;258;1284;-46
2021/05/17 09:59:32;;;;;;;;;;;19.50;46.40;;;;;;460438;258;1191;-46
2021/05/17 10:01:33;;;;;;;;;;;19.50;46.30;;;;;;460547;258;1241;-46
2021/05/17 10:03:34;;;;;;;;;;;19.60;46.10;;;;;;460662;258;2189;-46
2021/05/17 10:05:36;;;;;;;;;;;19.60;46.00;;;;;;460371;258;1209;-46
2021/05/17 10:07:37;;;;;;;;;;;19.70;46.00;;;;;;460394;258;1022;-46
2021/05/17 10:09:38;;;;;;;;;;;19.70;45.90;;;;;;460143;258;1115;-46
2021/05/17 10:11:40;;;;;;;;;;;19.70;45.80;;;;;;460205;258;1339;-46
2021/05/17 10:13:41;;;;;;;;;;;19.70;45.80;;;;;;460745;258;803;-46
2021/05/17 10:15:43;;;;;;;;;;;19.80;45.70;;;;;;460707;258;1402;-46
2021/05/17 10:17:43;;;;;;;;;;;19.80;45.70;;;;;;460611;258;1276;-46
2021/05/17 10:19:45;;;;;;;;;;;19.90;45.60;;;;;;460463;258;1159;-45
2021/05/17 10:21:46;;;;;;;;;;;19.90;45.50;;;;;;460425;258;1346;-46
2021/05/17 10:23:47;;;;;;;;;;;19.90;45.50;;;;;;460498;258;2212;-46
2021/05/17 10:25:48;;;;;;;;;;;19.90;45.50;;;;;;460437;258;1548;-46
2021/05/17 10:27:50;;;;;;;;;;;19.90;45.40;;;;;;460572;258;1203;-46
2021/05/17 10:29:51;;;;;;;;;;;20.00;45.40;;;;;;460505;258;1104;-46
2021/05/17 10:31:52;;;;;;;;;;;20.00;45.40;;;;;;460389;258;1714;-46
2021/05/17 10:33:54;;;;;;;;;;;20.00;45.30;;;;;;460324;258;1156;-46
2021/05/17 10:35:55;;;;;;;;;;;20.00;45.20;;;;;;460280;258;1270;-46
2021/05/17 10:37:56;;;;;;;;;;;20.10;45.30;;;;;;460333;258;1681;-46
2021/05/17 10:39:57;;;;;;;;;;;20.10;45.20;;;;;;460539;258;1146;-46
2021/05/17 10:42:13;;;;;;;;;;;20.10;45.10;;;;;;460342;258;1271;-46
2021/05/17 10:44:27;;;;;;;;;;;20.10;45.10;;;;;;460318;258;2208;-46
2021/05/17 10:48:44;;;;;;;;;;;20.10;45.10;;;;;;457256;258;1237;-46
2021/05/17 10:50:45;;;;;;;;;;;20.10;45.00;;;;;;460328;258;1282;-46
2021/05/17 10:52:46;;;;;;;;;;;20.20;45.00;;;;;;460410;258;1284;-46
2021/05/17 10:54:49;;;;;;;;;;;20.20;45.00;;;;;;460310;258;1136;-46
2021/05/17 10:56:54;;;;;;;;;;;20.20;44.90;;;;;;460395;258;1804;-46
2021/05/17 11:01:13;;;;;;;;;;;20.30;44.90;;;;;;460351;258;1123;-46
2021/05/17 11:03:15;;;;;;;;;;;20.20;44.90;;;;;;460457;258;2196;-46
2021/05/17 11:05:18;;;;;;;;;;;20.30;45.00;;;;;;460490;258;2066;-46
2021/05/17 11:07:17;;;;;;;;;;;20.30;44.70;;;;;;460231;258;1774;-46
2021/05/17 11:09:18;;;;;;;;;;;20.30;44.70;;;;;;460331;258;1127;-46
2021/05/17 11:11:21;;;;;;;;;;;20.40;44.70;;;;;;460263;258;1149;-46
2021/05/17 11:13:21;;;;;;;;;;;20.30;44.70;;;;;;460233;258;2295;-46
2021/05/17 11:15:22;;;;;;;;;;;20.40;44.70;;;;;;460548;258;1122;-46
2021/05/17 11:17:24;;;;;;;;;;;20.40;44.70;;;;;;460447;258;1137;-46
2021/05/17 11:19:25;;;;;;;;;;;20.40;44.60;;;;;;460422;258;1237;-46
2021/05/17 11:21:27;;;;;;;;;;;20.40;44.60;;;;;;460284;258;1204;-46
2021/05/17 11:23:28;;;;;;;;;;;20.40;44.60;;;;;;461063;258;2152;-46
2021/05/17 11:25:30;;;;;;;;;;;20.40;44.60;;;;;;460485;258;1154;-46
2021/05/17 11:27:31;;;;;;;;;;;20.40;44.60;;;;;;460701;258;1310;-46
2021/05/17 11:29:32;;;;;;;;;;;20.40;44.50;;;;;;460667;258;1124;-46
2021/05/17 11:31:38;;;;;;;;;;;20.50;44.50;;;;;;460313;258;1348;-46
2021/05/17 11:33:39;;;;;;;;;;;20.50;44.50;;;;;;460391;258;2064;-46
2021/05/17 11:35:40;;;;;;;;;;;20.50;44.50;;;;;;460528;258;1289;-46
2021/05/17 11:37:42;;;;;;;;;;;20.50;44.50;;;;;;460656;258;1255;-46
2021/05/17 11:39:43;;;;;;;;;;;20.60;44.40;;;;;;460454;258;1138;-46
2021/05/17 11:41:45;;;;;;;;;;;20.50;44.40;;;;;;460506;258;1218;-46
2021/05/17 11:43:46;;;;;;;;;;;20.60;44.40;;;;;;460510;258;2208;-46
2021/05/17 11:45:47;;;;;;;;;;;20.40;44.50;;;;;;460539;258;1151;-46
2021/05/17 11:47:48;;;;;;;;;;;20.00;45.50;;;;;;460467;258;1177;-46
2021/05/17 11:49:49;;;;;;;;;;;19.60;46.60;;;;;;460506;258;1171;-46
2021/05/17 11:51:51;;;;;;;;;;;19.20;47.50;;;;;;460463;258;1180;-46
2021/05/17 11:53:52;;;;;;;;;;;18.90;48.20;;;;;;460205;258;1110;-46
2021/05/17 11:55:53;;;;;;;;;;;18.80;48.80;;;;;;460324;258;1108;-46
2021/05/17 11:57:54;;;;;;;;;;;18.60;49.10;;;;;;460399;258;1113;-46
2021/05/17 11:59:56;;;;;;;;;;;18.60;49.40;;;;;;460749;253;1399;-46
2021/05/17 12:01:57;;;;;;;;;;;18.40;49.60;;;;;;460420;258;1281;-46
2021/05/17 12:03:58;;;;;;;;;;;18.40;49.90;;;;;;460444;258;2153;-46
2021/05/17 12:06:00;;;;;;;;;;;18.30;50.00;;;;;;460396;258;1199;-46
2021/05/17 12:08:01;;;;;;;;;;;18.20;50.10;;;;;;460402;258;1214;-46
2021/05/17 12:10:02;;;;;;;;;;;18.20;50.20;;;;;;460373;258;1106;-46
2021/05/17 12:12:06;;;;;;;;;;;18.20;50.40;;;;;;460479;258;1101;-46